createdAt,value
2022-11-24T00:00:41.140Z,80.77
2022-11-24T00:04:44.261Z,80.69
2022-11-24T00:08:47.761Z,81.15
2022-11-24T00:12:50.709Z,80.93
2022-11-24T00:16:55.116Z,80.68
2022-11-24T00:20:58.588Z,81.07
2022-11-24T00:25:01.586Z,80.96
2022-11-24T00:29:07.560Z,81.09
2022-11-24T00:33:11.883Z,81.05
2022-11-24T00:37:14.864Z,80.73
2022-11-24T00:41:18.039Z,80.71
2022-11-24T00:45:21.027Z,80.67
2022-11-24T00:49:25.493Z,80.86
2022-11-24T00:53:28.981Z,80.60
2022-11-24T00:57:32.041Z,80.34
2022-11-24T01:01:35.073Z,80.63
2022-11-24T01:05:40.372Z,80.18
2022-11-24T01:09:45.605Z,80.20
2022-11-24T01:13:50.676Z,80.38
2022-11-24T01:17:53.914Z,80.55
2022-11-24T01:21:58.243Z,80.43
2022-11-24T01:26:01.441Z,80.39
2022-11-24T01:30:05.602Z,80.48
2022-11-24T01:34:08.652Z,80.47
2022-11-24T01:38:13.207Z,80.69
2022-11-24T01:42:16.147Z,80.33
2022-11-24T01:46:23.898Z,80.71
2022-11-24T01:50:27.205Z,80.72
2022-11-24T01:54:34.473Z,80.52
2022-11-24T01:58:38.980Z,80.79
2022-11-24T02:02:43.499Z,80.68
2022-11-24T02:06:47.945Z,80.87
2022-11-24T02:10:52.325Z,81.42
2022-11-24T02:14:56.921Z,81.43
2022-11-24T02:18:59.883Z,81.60
2022-11-24T02:23:08.669Z,81.66
2022-11-24T02:27:13.110Z,81.77
2022-11-24T02:31:16.153Z,82.34
2022-11-24T02:35:19.491Z,82.21
2022-11-24T02:39:22.501Z,82.43
2022-11-24T02:43:29.316Z,82.72
2022-11-24T02:47:32.264Z,82.84
2022-11-24T02:51:35.682Z,82.98
2022-11-24T02:55:38.830Z,83.05
2022-11-24T02:59:43.237Z,82.81
2022-11-24T03:03:46.504Z,82.80
2022-11-24T03:07:49.743Z,82.51
2022-11-24T03:11:52.821Z,82.14
2022-11-24T03:15:57.179Z,82.39
2022-11-24T03:20:04.945Z,82.28
2022-11-24T03:24:08.527Z,81.98
2022-11-24T03:28:11.585Z,81.47
2022-11-24T03:32:15.908Z,81.92
2022-11-24T03:36:19.103Z,81.88
2022-11-24T03:40:22.075Z,81.54
2022-11-24T03:44:25.053Z,81.50
2022-11-24T03:48:29.431Z,81.38
2022-11-24T03:52:32.411Z,81.71
2022-11-24T03:56:35.406Z,81.20
2022-11-24T04:00:38.430Z,81.21
2022-11-24T04:04:47.076Z,81.23
2022-11-24T04:08:53.702Z,81.06
2022-11-24T04:12:56.666Z,80.80
2022-11-24T04:16:59.698Z,80.79
2022-11-24T04:21:04.061Z,80.51
2022-11-24T04:25:08.644Z,80.29
2022-11-24T04:29:12.004Z,80.32
2022-11-24T04:33:15.450Z,79.75
2022-11-24T04:37:19.935Z,80.05
2022-11-24T04:41:22.878Z,80.13
2022-11-24T04:45:25.942Z,80.19
2022-11-24T04:49:28.923Z,79.95
2022-11-24T04:53:33.545Z,79.79
2022-11-24T04:57:36.578Z,79.55
2022-11-24T05:01:39.606Z,79.64
2022-11-24T05:05:42.591Z,79.51
2022-11-24T05:10:04.718Z,79.69
2022-11-24T05:14:07.668Z,79.86
2022-11-24T05:18:15.311Z,79.78
2022-11-24T05:22:18.270Z,79.96
2022-11-24T05:26:22.722Z,80.10
2022-11-24T05:30:25.858Z,80.18
2022-11-24T05:34:32.086Z,80.38
2022-11-24T05:38:36.642Z,80.23
2022-11-24T05:42:47.611Z,80.45
2022-11-24T05:46:51.217Z,80.53
2022-11-24T05:50:55.865Z,80.55
2022-11-24T05:54:58.859Z,80.54
2022-11-24T05:59:08.167Z,80.62
2022-11-24T06:03:13.184Z,80.63
2022-11-24T06:07:16.230Z,80.86
2022-11-24T06:11:19.202Z,80.43
2022-11-24T06:15:23.709Z,80.69
2022-11-24T06:19:26.746Z,80.54
2022-11-24T06:23:29.716Z,80.62
2022-11-24T06:27:32.683Z,80.46
2022-11-24T06:31:37.346Z,80.58
2022-11-24T06:35:40.340Z,80.84
2022-11-24T06:39:43.315Z,80.71
2022-11-24T06:43:47.643Z,81.14
2022-11-24T06:47:54.776Z,81.12
2022-11-24T06:51:57.789Z,81.20
2022-11-24T06:56:01.756Z,81.30
2022-11-24T07:00:05.359Z,81.22
2022-11-24T07:04:10.328Z,81.14
2022-11-24T07:08:17.779Z,80.63
2022-11-24T07:12:21.329Z,81.06
2022-11-24T07:16:26.240Z,80.79
2022-11-24T07:20:30.675Z,80.90
2022-11-24T07:24:33.911Z,80.81
2022-11-24T07:28:38.671Z,80.73
2022-11-24T07:32:41.691Z,80.66
2022-11-24T07:36:46.144Z,80.77
2022-11-24T07:40:49.065Z,80.48
2022-11-24T07:44:52.158Z,80.36
2022-11-24T07:48:55.108Z,80.23
2022-11-24T07:53:04.259Z,80.14
2022-11-24T07:57:07.356Z,79.95
2022-11-24T08:01:15.306Z,79.91
2022-11-24T08:05:18.330Z,79.19
2022-11-24T08:09:22.688Z,79.43
2022-11-24T08:13:25.856Z,79.08
2022-11-24T08:17:29.795Z,78.95
2022-11-24T08:21:32.734Z,78.95
2022-11-24T08:25:37.114Z,78.94
2022-11-24T08:29:40.157Z,79.44
2022-11-24T08:33:43.847Z,79.60
2022-11-24T08:37:46.846Z,79.65
2022-11-24T08:41:51.227Z,79.79
2022-11-24T08:45:54.256Z,79.68
2022-11-24T08:49:57.282Z,80.10
2022-11-24T08:54:02.777Z,80.23
2022-11-24T08:58:07.195Z,80.63
2022-11-24T09:02:12.965Z,80.94
2022-11-24T09:06:16.790Z,81.08
2022-11-24T09:10:19.956Z,81.08
2022-11-24T09:14:24.313Z,81.62
2022-11-24T09:18:30.259Z,81.99
2022-11-24T09:22:33.831Z,81.87
2022-11-24T09:26:41.775Z,82.29
2022-11-24T09:30:49.359Z,82.33
2022-11-24T09:34:52.845Z,82.69
2022-11-24T09:38:56.300Z,83.20
2022-11-24T09:43:05.048Z,83.02
2022-11-24T09:47:14.961Z,83.25
2022-11-24T09:51:19.912Z,83.48
2022-11-24T09:55:31.576Z,83.86
2022-11-24T09:59:35.010Z,83.79
2022-11-24T10:03:43.521Z,84.58
2022-11-24T10:07:53.057Z,84.51
2022-11-24T10:12:03.611Z,85.07
2022-11-24T10:16:15.144Z,85.23
2022-11-24T10:20:28.867Z,84.99
2022-11-24T10:24:50.235Z,84.97
2022-11-24T10:28:55.915Z,85.34
2022-11-24T10:33:03.254Z,85.64
2022-11-24T10:37:17.951Z,85.89
2022-11-24T10:41:26.674Z,85.63
2022-11-24T10:45:30.484Z,86.11
2022-11-24T10:49:34.364Z,86.18
2022-11-24T10:53:43.711Z,86.51
2022-11-24T10:57:46.687Z,86.43
2022-11-24T11:01:49.868Z,86.22
2022-11-24T11:05:54.869Z,86.02
2022-11-24T11:10:22.336Z,85.98
2022-11-24T11:14:33.918Z,86.29
2022-11-24T11:18:37.478Z,86.31
2022-11-24T11:22:44.340Z,86.46
2022-11-24T11:26:48.904Z,86.60
2022-11-24T11:35:26.315Z,86.70
2022-11-24T11:39:33.014Z,86.80
2022-11-24T11:43:41.232Z,86.72
2022-11-24T11:47:50.957Z,86.94
2022-11-24T11:52:15.951Z,86.95
2022-11-24T11:56:26.220Z,87.33
2022-11-24T12:00:36.240Z,87.54
2022-11-24T12:04:48.221Z,87.19
2022-11-24T12:09:19.679Z,87.43
2022-11-24T12:13:42.753Z,87.16
2022-11-24T12:17:53.224Z,87.36
2022-11-24T12:22:06.971Z,87.19
2022-11-24T12:26:20.621Z,87.28
2022-11-24T12:30:24.696Z,87.52
2022-11-24T12:34:38.939Z,87.40
2022-11-24T12:38:51.562Z,87.58
2022-11-24T12:43:06.176Z,87.62
2022-11-24T12:47:16.318Z,87.74
2022-11-24T12:51:25.472Z,87.93
2022-11-24T12:55:32.233Z,87.82
2022-11-24T12:59:45.405Z,87.92
2022-11-24T13:04:03.251Z,87.91
2022-11-24T13:08:07.855Z,87.55
2022-11-24T13:12:14.382Z,87.88
2022-11-24T13:20:41.971Z,87.82
2022-11-24T13:24:46.493Z,87.88
2022-11-24T13:29:09.297Z,87.90
2022-11-24T13:33:48.011Z,88.19
2022-11-24T13:37:52.950Z,88.51
2022-11-24T13:42:06.340Z,88.60
2022-11-24T13:46:11.125Z,88.84
2022-11-24T13:50:26.065Z,88.89
2022-11-24T13:54:29.958Z,89.10
2022-11-24T13:58:38.457Z,89.00
2022-11-24T14:02:45.480Z,89.05
2022-11-24T14:06:59.014Z,89.25
2022-11-24T14:11:12.344Z,89.22
2022-11-24T14:15:24.704Z,89.21
2022-11-24T14:19:30.890Z,89.21
2022-11-24T14:23:35.209Z,89.28
2022-11-24T14:27:40.142Z,89.15
2022-11-24T14:31:52.805Z,89.37
2022-11-24T14:35:56.073Z,89.54
2022-11-24T14:39:59.012Z,89.70
2022-11-24T14:44:17.243Z,89.30
2022-11-24T14:48:28.846Z,89.20
2022-11-24T14:52:31.842Z,89.31
2022-11-24T14:56:37.523Z,89.34
2022-11-24T15:00:40.529Z,89.13
2022-11-24T15:05:03.738Z,89.40
2022-11-24T15:09:07.379Z,89.23
2022-11-24T15:13:18.535Z,89.51
2022-11-24T15:17:24.665Z,89.62
2022-11-24T15:21:38.288Z,89.64
2022-11-24T15:25:41.513Z,89.83
2022-11-24T15:29:44.459Z,89.91
2022-11-24T15:33:47.392Z,90.15
2022-11-24T15:37:52.137Z,90.13
2022-11-24T15:41:55.121Z,89.94
2022-11-24T15:45:58.834Z,89.71
2022-11-24T15:50:01.852Z,90.22
2022-11-24T15:54:07.238Z,90.39
2022-11-24T15:58:13.700Z,90.67
2022-11-24T16:02:16.683Z,90.42
2022-11-24T16:06:25.118Z,90.34
2022-11-24T16:10:33.087Z,90.20
2022-11-24T16:14:36.488Z,90.49
2022-11-24T16:18:40.104Z,90.61
2022-11-24T16:22:43.211Z,90.64
2022-11-24T16:26:47.571Z,90.96
2022-11-24T16:30:50.932Z,90.81
2022-11-24T16:34:53.921Z,90.94
2022-11-24T16:38:57.092Z,91.07
2022-11-24T16:43:01.793Z,90.72
2022-11-24T16:47:04.908Z,90.89
2022-11-24T16:51:10.277Z,90.87
2022-11-24T16:55:14.284Z,90.83
2022-11-24T16:59:18.699Z,91.07
2022-11-24T17:03:21.792Z,91.06
2022-11-24T17:07:24.811Z,91.31
2022-11-24T17:11:29.466Z,91.21
2022-11-24T17:15:36.713Z,91.16
2022-11-24T17:19:42.402Z,91.27
2022-11-24T17:23:45.430Z,91.37
2022-11-24T17:27:49.026Z,91.76
2022-11-24T17:31:53.672Z,91.19
2022-11-24T17:35:56.774Z,91.30
2022-11-24T17:40:20.705Z,91.04
2022-11-24T17:44:23.043Z,91.31
2022-11-24T17:48:28.011Z,90.69
2022-11-24T17:52:31.173Z,90.58
2022-11-24T17:56:34.382Z,90.81
2022-11-24T18:00:37.920Z,90.34
2022-11-24T18:04:42.396Z,90.32
2022-11-24T18:08:47.736Z,90.64
2022-11-24T18:12:50.727Z,90.52
2022-11-24T18:16:53.871Z,90.44
2022-11-24T18:20:59.744Z,90.58
2022-11-24T18:25:02.713Z,90.54
2022-11-24T18:29:05.861Z,90.60
2022-11-24T18:33:08.846Z,90.31
2022-11-24T18:37:14.861Z,90.30
2022-11-24T18:41:18.330Z,90.38
2022-11-24T18:45:21.302Z,90.27
2022-11-24T18:49:24.318Z,90.46
2022-11-24T18:53:29.558Z,90.46
2022-11-24T18:57:32.685Z,90.30
2022-11-24T19:01:35.795Z,90.47
2022-11-24T19:05:41.108Z,90.20
2022-11-24T19:09:46.370Z,89.94
2022-11-24T19:13:50.305Z,89.86
2022-11-24T19:17:53.209Z,89.77
2022-11-24T19:21:56.601Z,89.96
2022-11-24T19:26:02.358Z,90.05
2022-11-24T19:30:06.385Z,89.60
2022-11-24T19:34:09.924Z,89.62
2022-11-24T19:38:15.168Z,89.60
2022-11-24T19:42:19.744Z,89.35
2022-11-24T19:46:26.163Z,89.56
2022-11-24T19:50:29.092Z,89.70
2022-11-24T19:54:34.611Z,89.79
2022-11-24T19:58:41.513Z,89.30
2022-11-24T20:02:44.706Z,89.57
2022-11-24T20:06:48.571Z,89.65
2022-11-24T20:10:51.595Z,89.93
2022-11-24T20:14:56.845Z,89.78
2022-11-24T20:19:01.520Z,89.69
2022-11-24T20:23:04.510Z,89.60
2022-11-24T20:27:07.495Z,89.55
2022-11-24T20:31:14.148Z,89.49
2022-11-24T20:35:18.458Z,89.29
2022-11-24T20:39:25.271Z,89.21
2022-11-24T20:43:31.627Z,89.19
2022-11-24T20:47:36.714Z,88.94
2022-11-24T20:51:43.834Z,89.08
2022-11-24T20:55:47.000Z,88.98
2022-11-24T20:59:50.021Z,88.76
2022-11-24T21:03:56.001Z,88.68
2022-11-24T21:07:58.941Z,88.65
2022-11-24T21:12:01.879Z,88.35
2022-11-24T21:16:13.601Z,88.70
2022-11-24T21:20:18.126Z,88.72
2022-11-24T21:24:22.551Z,88.48
2022-11-24T21:28:25.496Z,88.22
2022-11-24T21:32:29.425Z,88.45
2022-11-24T21:36:35.270Z,88.27
2022-11-24T21:40:38.173Z,88.19
2022-11-24T21:44:41.129Z,87.92
2022-11-24T21:48:44.080Z,87.76
2022-11-24T21:52:48.417Z,87.33
2022-11-24T21:56:51.356Z,87.30
2022-11-24T22:00:54.711Z,87.01
2022-11-24T22:04:57.890Z,87.22
2022-11-24T22:09:02.205Z,87.12
2022-11-24T22:13:05.184Z,87.14
2022-11-24T22:17:08.201Z,87.26
2022-11-24T22:21:13.361Z,87.04
2022-11-24T22:25:17.898Z,87.08
2022-11-24T22:29:21.043Z,86.81
2022-11-24T22:33:24.036Z,86.70
2022-11-24T22:37:27.021Z,86.30
2022-11-24T22:41:32.048Z,86.36
2022-11-24T22:45:36.632Z,86.33
2022-11-24T22:49:39.596Z,85.89
2022-11-24T22:53:42.611Z,85.75
2022-11-24T22:57:48.417Z,85.75
2022-11-24T23:01:51.674Z,85.88
2022-11-24T23:05:54.811Z,85.60
2022-11-24T23:09:58.018Z,85.69
2022-11-24T23:14:02.573Z,85.45
2022-11-24T23:18:05.810Z,85.59
2022-11-24T23:22:08.739Z,85.48
2022-11-24T23:26:13.652Z,84.97
2022-11-24T23:30:18.314Z,85.03
2022-11-24T23:34:21.251Z,85.09
2022-11-24T23:38:28.580Z,84.74
2022-11-24T23:42:31.575Z,84.74
2022-11-24T23:46:36.125Z,84.81
2022-11-24T23:50:39.255Z,84.71
2022-11-24T23:54:42.302Z,84.95
2022-11-24T23:58:45.979Z,84.84
